Time;durP1;ratioP1;P1;durP2;ratioP2;P2;SDS_P1;SDS_P2;PMS_P1;PMS_P2;Temp;Humidity;BMP_temperature;BMP_pressure;BME280_temperature;BME280_humidity;BME280_pressure;Samples;Min_cycle;Max_cycle;Signal;HPM_P1;HPM_P2
2023/04/04 00:00:44;;;;;;;11.40;5.18;;;;;;;2.39;68.83;102903.94;4963122;28;20121;-96
2023/04/04 00:03:17;;;;;;;9.13;5.30;;;;;;;2.39;69.17;102911.66;4963978;28;20027;-96
2023/04/04 00:05:44;;;;;;;8.50;5.18;;;;;;;2.35;69.73;102904.47;4964980;28;20031;-96
2023/04/04 00:08:10;;;;;;;11.02;5.05;;;;;;;2.36;69.13;102913.97;4967241;28;20050;-96
2023/04/04 00:10:35;;;;;;;9.65;4.55;;;;;;;2.34;68.98;102911.25;4962833;28;20487;-93
2023/04/04 00:13:01;;;;;;;8.65;4.90;;;;;;;2.31;69.23;102910.97;4967408;28;20029;-96
2023/04/04 00:15:27;;;;;;;9.38;4.88;;;;;;;2.29;69.48;102909.94;4970451;28;20019;-95
2023/04/04 00:17:56;;;;;;;8.80;4.40;;;;;;;2.27;69.53;102906.31;4975992;28;20166;-96
2023/04/04 00:20:36;;;;;;;12.60;4.53;;;;;;;2.29;69.77;102914.19;4963116;28;20508;-96
2023/04/04 00:23:02;;;;;;;9.02;4.32;;;;;;;2.29;70.15;102924.47;4966438;28;20034;-96
2023/04/04 00:25:29;;;;;;;8.68;4.78;;;;;;;2.26;70.75;102919.97;4968232;28;20025;-94
2023/04/04 00:27:59;;;;;;;9.15;4.53;;;;;;;2.23;70.40;102918.00;4981504;28;20030;-95
2023/04/04 00:30:28;;;;;;;7.97;4.50;;;;;;;2.24;70.55;102908.63;4977958;28;20038;-94
2023/04/04 00:32:55;;;;;;;9.18;4.50;;;;;;;2.26;70.82;102915.72;4974685;28;20082;-96
2023/04/04 00:35:21;;;;;;;9.07;4.30;;;;;;;2.22;71.45;102913.63;4961908;28;21014;-96
2023/04/04 00:37:48;;;;;;;8.40;4.47;;;;;;;2.18;70.87;102916.69;4981984;28;20115;-96
2023/04/04 00:40:14;;;;;;;11.30;4.95;;;;;;;2.15;70.82;102918.09;4968221;28;20049;-96
2023/04/04 00:42:40;;;;;;;7.53;4.82;;;;;;;2.10;70.61;102917.66;4961409;28;20484;-96
2023/04/04 00:45:15;;;;;;;7.80;4.75;;;;;;;2.04;70.67;102925.72;4985727;28;20023;-96
2023/04/04 00:47:42;;;;;;;6.93;4.00;;;;;;;2.03;71.17;102921.34;4971342;28;20050;-96
2023/04/04 00:50:08;;;;;;;7.82;4.20;;;;;;;2.01;70.73;102925.41;4979563;28;20031;-96
2023/04/04 00:52:36;;;;;;;6.97;4.20;;;;;;;2.00;70.56;102925.28;4981004;28;20034;-96
2023/04/04 00:55:03;;;;;;;8.07;3.95;;;;;;;2.01;70.57;102921.94;4972472;28;20555;-96
2023/04/04 00:57:35;;;;;;;10.13;5.03;;;;;;;2.00;71.13;102920.13;4976860;28;20030;-96
2023/04/04 01:00:06;;;;;;;8.25;4.43;;;;;;;1.98;70.63;102914.84;4977308;28;20058;-96
2023/04/04 01:02:32;;;;;;;11.60;4.90;;;;;;;1.94;70.98;102920.50;4980867;28;20035;-96
2023/04/04 01:05:00;;;;;;;7.57;4.28;;;;;;;1.94;70.75;102923.06;4979064;28;20944;-96
2023/04/04 01:07:26;;;;;;;10.45;4.43;;;;;;;1.92;70.89;102920.31;4970441;28;20101;-96
2023/04/04 01:09:55;;;;;;;8.68;4.38;;;;;;;1.90;71.29;102914.16;4982077;28;20121;-96
2023/04/04 01:12:21;;;;;;;7.00;4.00;;;;;;;1.90;71.16;102919.28;4980327;28;20018;-96
2023/04/04 01:14:46;;;;;;;7.25;4.25;;;;;;;1.86;70.93;102912.06;4985749;28;20032;-96
2023/04/04 01:17:15;;;;;;;7.78;4.72;;;;;;;1.85;71.01;102914.50;4981928;28;20105;-96
2023/04/04 01:20:14;;;;;;;10.15;4.60;;;;;;;1.85;71.22;102909.34;4986327;28;20027;-96
2023/04/04 01:22:42;;;;;;;8.52;4.68;;;;;;;1.82;70.79;102901.38;4985240;28;20062;-96
2023/04/04 01:25:16;;;;;;;9.32;4.10;;;;;;;1.78;71.11;102895.00;4987664;28;20022;-96
2023/04/04 01:27:45;;;;;;;6.72;3.20;;;;;;;1.74;72.32;102900.66;4978636;28;20045;-96
2023/04/04 01:30:11;;;;;;;5.90;3.42;;;;;;;1.69;72.21;102891.59;4975754;28;20822;-96
2023/04/04 01:32:49;;;;;;;7.35;3.65;;;;;;;1.64;72.48;102890.28;4988080;28;20037;-96
2023/04/04 01:35:31;;;;;;;7.00;3.28;;;;;;;1.60;71.91;102895.91;4982272;28;20022;-96
2023/04/04 01:38:06;;;;;;;7.22;4.05;;;;;;;1.55;72.45;102893.81;4984857;28;20022;-96
2023/04/04 01:40:34;;;;;;;9.32;3.70;;;;;;;1.53;72.16;102886.72;4975177;28;20122;-96
2023/04/04 01:43:00;;;;;;;7.88;4.13;;;;;;;1.52;72.35;102884.91;4975232;28;20023;-96
2023/04/04 01:45:29;;;;;;;6.85;3.60;;;;;;;1.49;72.75;102887.19;4985061;28;20874;-96
2023/04/04 01:48:00;;;;;;;8.20;4.22;;;;;;;1.46;72.39;102881.75;4975469;28;20059;-96
2023/04/04 01:50:28;;;;;;;8.23;4.07;;;;;;;1.43;72.74;102882.38;4975137;28;20061;-96
2023/04/04 01:52:53;;;;;;;9.15;4.50;;;;;;;1.43;72.80;102884.03;4983256;28;20058;-96
2023/04/04 01:55:26;;;;;;;9.25;4.32;;;;;;;1.40;72.63;102882.09;4983158;28;20053;-96
2023/04/04 01:57:54;;;;;;;7.40;4.22;;;;;;;1.38;72.19;102878.50;4972846;28;20481;-96
2023/04/04 02:00:23;;;;;;;9.57;4.80;;;;;;;1.36;72.31;102886.06;4978991;28;20131;-96
2023/04/04 02:02:51;;;;;;;7.57;4.40;;;;;;;1.34;72.31;102878.97;4977848;28;20420;-96
2023/04/04 02:05:32;;;;;;;9.35;4.65;;;;;;;1.33;72.31;102874.56;4982222;28;20030;-96
2023/04/04 02:07:58;;;;;;;8.75;4.28;;;;;;;1.29;72.34;102883.66;4983172;28;20480;-96
2023/04/04 02:10:26;;;;;;;8.23;4.45;;;;;;;1.25;72.16;102872.97;4985444;28;20029;-96
2023/04/04 02:12:57;;;;;;;8.63;4.57;;;;;;;1.20;73.15;102878.56;4982011;28;20026;-96
2023/04/04 02:15:26;;;;;;;8.57;4.50;;;;;;;1.17;72.64;102882.50;4978335;28;20027;-96
2023/04/04 02:17:54;;;;;;;10.03;5.00;;;;;;;1.17;73.04;102883.41;4981917;28;20041;-96
2023/04/04 02:20:23;;;;;;;9.00;5.20;;;;;;;1.15;73.38;102884.91;4975325;28;20300;-96
2023/04/04 02:22:54;;;;;;;9.95;4.57;;;;;;;1.13;72.77;102890.66;4975241;28;20085;-96
2023/04/04 02:25:23;;;;;;;8.02;4.80;;;;;;;1.10;72.57;102887.81;4982097;28;20026;-96
2023/04/04 02:27:57;;;;;;;9.25;4.50;;;;;;;1.08;72.39;102886.78;4982056;28;20167;-96
2023/04/04 02:30:22;;;;;;;9.25;4.70;;;;;;;1.07;72.97;102893.53;4973777;28;20022;-96
2023/04/04 02:32:58;;;;;;;6.70;4.20;;;;;;;1.02;73.34;102894.78;4977755;28;20034;-96
2023/04/04 02:35:26;;;;;;;8.30;3.92;;;;;;;1.01;73.30;102896.47;4978134;28;20023;-96
2023/04/04 02:37:57;;;;;;;6.93;3.63;;;;;;;1.02;73.26;102910.19;4978435;28;20031;-96
2023/04/04 02:40:23;;;;;;;8.45;4.30;;;;;;;1.00;73.76;102904.00;4981604;28;20030;-96
2023/04/04 02:42:51;;;;;;;7.30;3.90;;;;;;;0.97;73.56;102896.91;4982272;28;20404;-96
2023/04/04 02:45:20;;;;;;;7.18;3.80;;;;;;;0.95;73.49;102900.97;4978913;28;20062;-96
2023/04/04 02:47:52;;;;;;;7.72;4.28;;;;;;;0.93;73.68;102891.31;4983771;28;20049;-96
2023/04/04 02:50:18;;;;;;;10.32;4.78;;;;;;;0.91;72.92;102892.84;4980585;28;20027;-96
2023/04/04 02:52:49;;;;;;;9.90;4.35;;;;;;;0.90;73.39;102889.41;4978985;28;20036;-96
2023/04/04 02:55:15;;;;;;;9.30;4.53;;;;;;;0.91;74.21;102886.03;4979516;28;20507;-96
2023/04/04 02:57:49;;;;;;;10.88;4.40;;;;;;;0.88;74.95;102882.28;4988733;28;20114;-96
2023/04/04 03:00:15;;;;;;;7.55;3.72;;;;;;;0.86;74.55;102885.59;4983285;28;20580;-96
2023/04/04 03:02:42;;;;;;;7.85;3.85;;;;;;;0.84;75.27;102879.44;4986665;28;20041;-96
2023/04/04 03:05:10;;;;;;;7.57;4.00;;;;;;;0.82;74.40;102883.50;4978809;28;20034;-96
2023/04/04 03:07:36;;;;;;;10.05;4.65;;;;;;;0.81;73.95;102876.59;4983709;28;20036;-96
2023/04/04 03:10:01;;;;;;;8.40;4.75;;;;;;;0.76;73.78;102882.91;4982664;28;20109;-96
2023/04/04 03:12:38;;;;;;;6.75;4.40;;;;;;;0.76;74.06;102884.59;4985630;28;20044;-96
2023/04/04 03:15:04;;;;;;;9.55;4.10;;;;;;;0.73;74.20;102898.03;4980539;28;20019;-96
2023/04/04 03:17:32;;;;;;;7.55;4.30;;;;;;;0.69;74.18;102891.69;4986840;28;20069;-96
2023/04/04 03:19:58;;;;;;;8.57;4.45;;;;;;;0.68;74.07;102886.41;4985184;28;20049;-96
2023/04/04 03:22:23;;;;;;;7.50;4.18;;;;;;;0.67;74.53;102892.31;4978811;28;20500;-96
2023/04/04 03:24:51;;;;;;;10.55;4.38;;;;;;;0.67;74.07;102894.88;4986077;28;20034;-96
2023/04/04 03:27:22;;;;;;;10.15;4.68;;;;;;;0.66;74.19;102890.50;4990587;28;20030;-96
2023/04/04 03:30:04;;;;;;;10.10;5.47;;;;;;;0.65;74.19;102893.81;4983199;28;20034;-96
2023/04/04 03:32:29;;;;;;;7.68;4.45;;;;;;;0.63;74.51;102888.53;4983165;28;20098;-96
2023/04/04 03:34:55;;;;;;;7.40;4.25;;;;;;;0.63;74.28;102887.63;4985379;28;20154;-96
2023/04/04 03:37:21;;;;;;;9.63;4.50;;;;;;;0.63;74.42;102885.06;4982489;28;20026;-96
2023/04/04 03:39:50;;;;;;;9.38;4.40;;;;;;;0.60;73.69;102879.66;4987576;28;20041;-96
2023/04/04 03:42:15;;;;;;;7.78;4.35;;;;;;;0.57;75.46;102879.34;4974659;28;20034;-96
2023/04/04 03:44:41;;;;;;;12.10;4.90;;;;;;;0.55;74.56;102876.63;4968638;28;20034;-96
2023/04/04 03:47:09;;;;;;;8.30;4.47;;;;;;;0.52;74.61;102873.75;4984964;28;20046;-96
2023/04/04 03:49:35;;;;;;;8.23;4.38;;;;;;;0.49;74.29;102865.75;4983501;28;20038;-96
2023/04/04 03:52:01;;;;;;;10.43;4.95;;;;;;;0.48;74.47;102863.97;4985125;28;20037;-96
2023/04/04 03:54:27;;;;;;;10.02;4.03;;;;;;;0.44;74.56;102862.75;4976810;28;21591;-96
2023/04/04 03:56:53;;;;;;;8.00;4.25;;;;;;;0.44;74.86;102864.44;4979815;28;20027;-96
2023/04/04 03:59:24;;;;;;;7.85;4.18;;;;;;;0.40;75.07;102864.88;4985744;28;20019;-96
2023/04/04 04:01:52;;;;;;;7.57;4.50;;;;;;;0.36;75.43;102860.19;4983941;28;20034;-96
2023/04/04 04:04:21;;;;;;;8.52;4.13;;;;;;;0.31;75.50;102854.63;4979115;28;20023;-96
2023/04/04 04:06:49;;;;;;;9.20;4.60;;;;;;;0.30;75.33;102866.53;4979922;28;20027;-96
2023/04/04 04:09:23;;;;;;;8.32;4.25;;;;;;;0.27;75.48;102873.94;4980827;28;20038;-96
2023/04/04 04:11:48;;;;;;;8.23;4.63;;;;;;;0.24;74.96;102875.31;4975608;28;20548;-96
2023/04/04 04:14:19;;;;;;;8.23;4.20;;;;;;;0.23;75.76;102876.03;4984111;28;20026;-96
2023/04/04 04:16:48;;;;;;;9.80;4.15;;;;;;;0.17;75.76;102869.56;4984337;28;20026;-96
2023/04/04 04:19:13;;;;;;;9.88;4.53;;;;;;;0.16;75.07;102864.31;4988277;28;20023;-96
2023/04/04 04:21:38;;;;;;;8.70;4.90;;;;;;;0.14;75.01;102865.78;4975428;28;20165;-96
2023/04/04 04:24:04;;;;;;;9.45;4.93;;;;;;;0.12;75.02;102864.75;4976471;28;20027;-96
2023/04/04 04:26:33;;;;;;;8.65;4.65;;;;;;;0.12;75.74;102864.75;4977836;28;20515;-96
2023/04/04 04:28:58;;;;;;;9.80;5.20;;;;;;;0.11;75.85;102863.81;4981175;28;20034;-96
2023/04/04 04:31:33;;;;;;;8.98;5.40;;;;;;;0.10;75.66;102856.91;4983999;28;20097;-96
2023/04/04 04:33:58;;;;;;;9.90;5.20;;;;;;;0.11;75.11;102856.13;4982020;28;20062;-96
2023/04/04 04:36:27;;;;;;;11.63;4.80;;;;;;;0.12;75.68;102860.53;4980209;28;20081;-96
2023/04/04 04:38:52;;;;;;;10.05;4.68;;;;;;;0.10;75.85;102864.59;4979138;28;20026;-96
2023/04/04 04:41:23;;;;;;;10.77;5.03;;;;;;;0.10;76.18;102862.03;4986208;28;20377;-96
2023/04/04 04:43:51;;;;;;;9.50;5.47;;;;;;;0.11;76.07;102855.25;4979756;28;20030;-96
2023/04/04 04:46:17;;;;;;;12.02;5.22;;;;;;;0.11;75.57;102855.25;4978450;28;20058;-96
2023/04/04 04:48:42;;;;;;;15.73;5.30;;;;;;;0.10;75.53;102859.47;4963367;28;20034;-96
2023/04/04 04:51:10;;;;;;;13.30;5.63;;;;;;;0.09;75.66;102862.78;4965253;28;20029;-96
2023/04/04 04:53:43;;;;;;;10.75;5.13;;;;;;;0.05;75.14;102868.34;4965126;28;20169;-96
2023/04/04 04:56:09;;;;;;;9.43;5.85;;;;;;;0.02;75.18;102875.75;4959880;28;20037;-96
2023/04/04 04:58:37;;;;;;;11.55;5.55;;;;;;;-0.03;75.40;102876.94;4970515;28;20042;-96
2023/04/04 05:01:02;;;;;;;9.63;5.30;;;;;;;-0.06;75.77;102882.69;4960565;28;20038;-96
2023/04/04 05:03:31;;;;;;;11.10;4.65;;;;;;;-0.07;76.11;102887.66;4964969;28;20022;-96
2023/04/04 05:05:57;;;;;;;11.63;5.00;;;;;;;-0.07;77.01;102887.66;4959736;28;20033;-96
2023/04/04 05:08:31;;;;;;;7.70;4.65;;;;;;;-0.14;76.44;102893.81;4966852;28;20387;-96
2023/04/04 05:11:04;;;;;;;9.25;4.88;;;;;;;-0.16;76.92;102894.41;4969219;28;20027;-96
2023/04/04 05:13:30;;;;;;;9.57;4.80;;;;;;;-0.20;76.68;102896.66;4967816;28;20101;-96
2023/04/04 05:15:58;;;;;;;8.35;4.90;;;;;;;-0.21;76.69;102892.28;4968986;28;20496;-96
2023/04/04 05:18:29;;;;;;;9.52;5.22;;;;;;;-0.24;76.75;102897.09;4965072;28;20042;-96
2023/04/04 05:20:58;;;;;;;9.95;5.10;;;;;;;-0.24;76.83;102891.09;4964766;28;20034;-96
2023/04/04 05:23:23;;;;;;;9.43;4.85;;;;;;;-0.25;76.55;102895.28;4968770;28;20037;-96
2023/04/04 05:28:48;;;;;;;11.43;4.93;;;;;;;-0.25;77.52;102891.81;4970406;28;20034;-96
2023/04/04 05:31:14;;;;;;;9.57;5.17;;;;;;;-0.27;78.08;102896.81;4964925;28;20014;-96
2023/04/04 05:33:49;;;;;;;10.80;6.20;;;;;;;-0.29;78.02;102898.31;4969195;28;20030;-96
2023/04/04 05:36:17;;;;;;;8.13;5.53;;;;;;;-0.28;77.88;102889.84;4959168;28;20023;-96
2023/04/04 05:38:42;;;;;;;10.75;5.75;;;;;;;-0.26;78.40;102887.44;4962792;28;20477;-96
2023/04/04 05:41:07;;;;;;;9.45;5.43;;;;;;;-0.26;78.48;102887.44;4974994;28;20089;-96
2023/04/04 05:43:33;;;;;;;10.15;5.20;;;;;;;-0.26;77.85;102897.69;4962457;28;20055;-96
2023/04/04 05:45:58;;;;;;;7.80;5.03;;;;;;;-0.27;78.53;102899.38;4959054;28;20038;-96
2023/04/04 05:48:26;;;;;;;10.35;5.10;;;;;;;-0.26;78.29;102903.75;4988454;28;20641;-96
2023/04/04 05:50:52;;;;;;;10.52;5.07;;;;;;;-0.27;78.31;102901.91;4976600;28;20034;-96
2023/04/04 05:53:20;;;;;;;9.60;5.43;;;;;;;-0.25;78.47;102912.31;4979953;28;20114;-95
2023/04/04 05:55:57;;;;;;;9.30;4.97;;;;;;;-0.25;78.28;102910.66;4979408;28;20388;-96
2023/04/04 05:58:23;;;;;;;12.07;5.03;;;;;;;-0.24;78.60;102911.59;4977981;28;20442;-96
2023/04/04 06:00:48;;;;;;;8.73;4.78;;;;;;;-0.23;78.76;102908.28;4976241;28;20058;-96
2023/04/04 06:03:16;;;;;;;10.07;5.50;;;;;;;-0.23;78.72;102908.28;4987207;28;20096;-96
2023/04/04 06:05:51;;;;;;;9.32;4.90;;;;;;;-0.21;78.61;102904.19;4982275;28;20022;-96
2023/04/04 06:08:20;;;;;;;8.80;5.18;;;;;;;-0.20;78.78;102904.34;4974350;28;20037;-96
2023/04/04 06:10:50;;;;;;;12.02;5.43;;;;;;;-0.16;79.60;102902.09;4975740;28;20026;-96
2023/04/04 06:13:15;;;;;;;11.45;5.57;;;;;;;-0.13;79.86;102903.31;4979605;28;20023;-96
2023/04/04 06:15:40;;;;;;;9.57;5.50;;;;;;;-0.08;79.77;102896.09;4980591;28;20081;-96
2023/04/04 06:18:06;;;;;;;9.85;5.68;;;;;;;-0.03;79.85;102907.69;4979923;28;20038;-96
2023/04/04 06:20:34;;;;;;;9.52;5.53;;;;;;;0.02;80.70;102911.63;4983020;28;20134;-96
2023/04/04 06:23:03;;;;;;;9.40;5.78;;;;;;;0.06;79.92;102910.25;4980301;28;20396;-96
2023/04/04 06:25:33;;;;;;;8.63;5.10;;;;;;;0.14;80.44;102919.63;4983839;28;20031;-96
2023/04/04 06:28:02;;;;;;;9.82;6.07;;;;;;;0.19;80.38;102915.88;4984280;28;20161;-96
2023/04/04 06:30:28;;;;;;;11.05;6.40;;;;;;;0.28;80.93;102919.34;4983763;28;20034;-96
2023/04/04 06:32:53;;;;;;;10.57;6.07;;;;;;;0.36;80.80;102922.63;4983985;28;20404;-96
2023/04/04 06:35:20;;;;;;;9.98;6.20;;;;;;;0.46;80.95;102927.91;4987486;28;20026;-96
2023/04/04 06:37:54;;;;;;;12.95;6.47;;;;;;;0.56;80.74;102933.97;4981580;28;20034;-96
2023/04/04 06:40:19;;;;;;;13.43;6.90;;;;;;;0.67;81.04;102931.69;4985566;28;20029;-96
2023/04/04 06:42:53;;;;;;;12.52;6.43;;;;;;;0.80;81.38;102922.63;4982694;28;20027;-96
2023/04/04 06:45:22;;;;;;;10.88;6.07;;;;;;;0.93;79.92;102932.38;4978875;28;20026;-96
2023/04/04 06:47:53;;;;;;;12.00;7.03;;;;;;;1.08;80.33;102923.59;4973450;28;20042;-96
2023/04/04 06:50:21;;;;;;;11.27;7.22;;;;;;;1.24;79.46;102922.50;4978406;28;20045;-96
2023/04/04 06:52:46;;;;;;;11.98;7.15;;;;;;;1.42;79.27;102934.53;4977413;28;20038;-96
2023/04/04 06:55:17;;;;;;;13.85;8.32;;;;;;;1.55;78.35;102923.72;4982664;28;20027;-96
2023/04/04 06:57:46;;;;;;;13.05;7.70;;;;;;;1.63;77.20;102927.03;4987919;28;20566;-96
2023/04/04 07:00:12;;;;;;;11.73;7.68;;;;;;;1.75;77.83;102928.16;4988163;28;20027;-96
2023/04/04 07:02:38;;;;;;;11.07;7.47;;;;;;;1.86;77.78;102924.03;4984914;28;20023;-96
2023/04/04 07:05:03;;;;;;;12.50;8.05;;;;;;;2.03;76.66;102930.72;4983770;28;20507;-96
2023/04/04 07:07:29;;;;;;;10.75;7.60;;;;;;;2.16;76.03;102936.22;4980006;28;20027;-96
2023/04/04 07:10:00;;;;;;;12.30;8.30;;;;;;;2.32;75.70;102937.59;4982855;28;20026;-96
2023/04/04 07:12:28;;;;;;;11.43;7.75;;;;;;;2.42;75.25;102930.88;4982559;28;20029;-96
2023/04/04 07:14:53;;;;;;;11.25;7.78;;;;;;;2.56;74.61;102933.78;4983728;28;20078;-96
2023/04/04 07:17:22;;;;;;;13.45;7.70;;;;;;;2.66;73.55;102932.94;4978841;28;20030;-95
2023/04/04 07:19:50;;;;;;;14.18;7.70;;;;;;;2.82;74.19;102940.34;4979620;28;20586;-93
2023/04/04 07:22:15;;;;;;;14.60;7.72;;;;;;;2.99;73.65;102927.31;4979469;28;20037;-95
2023/04/04 07:24:41;;;;;;;11.38;7.50;;;;;;;3.16;73.66;102928.78;4985861;28;20050;-95
2023/04/04 07:27:14;;;;;;;11.02;7.38;;;;;;;3.27;72.88;102925.47;4977091;28;20053;-95
2023/04/04 07:29:42;;;;;;;13.55;7.25;;;;;;;3.41;72.97;102925.75;4977491;28;20022;-95
2023/04/04 07:32:10;;;;;;;13.27;7.40;;;;;;;3.51;70.59;102920.63;4978594;28;20023;-96
2023/04/04 07:34:49;;;;;;;13.20;7.40;;;;;;;3.57;70.02;102918.56;4978214;28;20105;-96
2023/04/04 07:37:15;;;;;;;12.75;7.32;;;;;;;3.71;71.03;102908.50;4982991;28;20085;-95
2023/04/04 07:39:40;;;;;;;13.98;7.93;;;;;;;3.85;70.69;102907.13;4979370;28;20027;-96
2023/04/04 07:42:08;;;;;;;13.02;7.47;;;;;;;3.97;71.43;102916.78;4982574;28;20039;-96
2023/04/04 07:44:33;;;;;;;11.07;7.30;;;;;;;4.12;70.35;102917.16;4981296;28;20034;-95
2023/04/04 07:47:02;;;;;;;12.73;7.07;;;;;;;4.21;68.05;102911.84;4982156;28;20059;-95
2023/04/04 07:49:32;;;;;;;11.32;7.32;;;;;;;4.32;68.31;102923.09;4962014;28;20022;-96
2023/04/04 07:52:01;;;;;;;9.18;6.15;;;;;;;4.37;66.16;102913.13;4990028;28;20030;-95
2023/04/04 07:54:26;;;;;;;11.65;6.65;;;;;;;4.44;65.82;102910.28;4965887;28;20579;-95
2023/04/04 07:56:52;;;;;;;10.93;6.75;;;;;;;4.51;66.37;102908.31;4970109;28;20039;-96
2023/04/04 07:59:17;;;;;;;11.95;6.75;;;;;;;4.70;66.98;102912.41;4968649;28;20018;-95
2023/04/04 08:01:45;;;;;;;12.05;6.28;;;;;;;4.85;65.13;102904.97;4971501;28;20081;-96
2023/04/04 08:04:11;;;;;;;10.27;5.97;;;;;;;5.02;66.54;102924.41;4971329;28;20101;-96
2023/04/04 08:06:39;;;;;;;8.82;5.20;;;;;;;5.13;60.69;102925.28;4967999;28;20433;-96
2023/04/04 08:09:08;;;;;;;9.38;5.45;;;;;;;5.16;60.72;102918.66;4971595;28;20034;-96
2023/04/04 08:11:34;;;;;;;8.18;4.75;;;;;;;5.20;60.81;102920.72;4981099;28;20031;-96
2023/04/04 08:14:00;;;;;;;12.68;5.03;;;;;;;5.34;60.36;102918.31;4966330;28;20031;-96
2023/04/04 08:16:25;;;;;;;7.15;4.50;;;;;;;5.49;60.23;102918.59;4967903;28;20547;-96
2023/04/04 08:18:57;;;;;;;8.07;4.22;;;;;;;5.58;58.74;102920.22;4964988;28;20026;-96
2023/04/04 08:21:23;;;;;;;8.30;4.22;;;;;;;5.57;58.63;102922.69;4962182;28;20484;-96
2023/04/04 08:23:48;;;;;;;7.20;4.05;;;;;;;5.61;56.33;102923.84;4965975;28;20037;-96
2023/04/04 08:26:14;;;;;;;6.85;3.42;;;;;;;5.61;56.28;102921.25;4970686;28;20030;-96
2023/04/04 08:28:40;;;;;;;7.03;3.92;;;;;;;5.62;55.75;102923.97;4980635;28;20496;-96
2023/04/04 08:31:09;;;;;;;8.02;4.30;;;;;;;5.66;61.22;102918.25;4966245;28;20492;-96
2023/04/04 08:33:37;;;;;;;9.20;4.55;;;;;;;5.75;56.06;102921.53;4960845;28;20701;-96
2023/04/04 08:36:03;;;;;;;8.82;4.70;;;;;;;5.82;57.24;102916.81;4972319;28;20502;-95
2023/04/04 08:38:31;;;;;;;4.80;3.20;;;;;;;5.90;57.12;102914.03;4968718;28;20023;-95
2023/04/04 08:40:57;;;;;;;7.07;3.60;;;;;;;6.06;56.86;102910.06;4971068;28;20030;-94
2023/04/04 08:43:24;;;;;;;8.85;4.10;;;;;;;6.15;55.45;102910.72;4966708;28;20029;-96
2023/04/04 08:45:59;;;;;;;8.00;3.90;;;;;;;6.27;55.55;102902.97;4962616;28;20034;-96
2023/04/04 08:48:28;;;;;;;7.20;4.00;;;;;;;6.32;56.64;102901.66;4969198;28;20030;-96
2023/04/04 08:51:00;;;;;;;5.78;3.45;;;;;;;6.42;54.00;102896.34;4970354;28;20006;-96
2023/04/04 08:55:58;;;;;;;7.30;3.33;;;;;;;6.70;53.14;102897.47;5025189;23;20120;-70
2023/04/04 08:58:25;;;;;;;6.60;3.27;;;;;;;6.86;53.58;102899.47;5000195;28;20121;-70
2023/04/04 09:00:54;;;;;;;5.80;3.20;;;;;;;7.12;52.40;102897.03;5001192;28;20034;-71
2023/04/04 09:03:23;;;;;;;7.88;3.00;;;;;;;7.20;50.56;102894.09;4999590;28;20069;-71
2023/04/04 09:05:49;;;;;;;8.57;3.60;;;;;;;7.17;49.69;102896.47;4999228;28;20037;-71
2023/04/04 09:08:17;;;;;;;6.85;3.17;;;;;;;6.99;49.93;102890.91;4999579;28;20405;-71
2023/04/04 09:10:44;;;;;;;5.57;2.90;;;;;;;6.87;50.58;102903.88;5000019;28;20164;-71
2023/04/04 09:13:10;;;;;;;6.47;2.80;;;;;;;6.97;50.23;102890.78;4999982;28;20030;-71
2023/04/04 09:15:42;;;;;;;6.10;3.00;;;;;;;7.11;53.13;102892.69;4997562;28;20025;-70
2023/04/04 09:18:07;;;;;;;6.82;3.40;;;;;;;7.26;52.19;102894.56;5000549;28;20061;-63
2023/04/04 09:20:35;;;;;;;6.20;3.20;;;;;;;7.42;49.11;102905.19;5001550;28;20064;-63
2023/04/04 09:23:02;;;;;;;5.97;2.65;;;;;;;7.45;48.98;102892.44;5039443;23;20516;-96
2023/04/04 09:25:27;;;;;;;4.93;2.63;;;;;;;7.46;50.40;102904.63;5001492;28;20040;-96
2023/04/04 09:27:56;;;;;;;5.97;2.95;;;;;;;7.65;51.43;102892.91;5018502;28;20116;-96
2023/04/04 09:30:22;;;;;;;7.40;3.30;;;;;;;7.95;51.21;102898.38;4996578;28;20029;-96
2023/04/04 09:33:10;;;;;;;8.00;3.10;;;;;;;8.31;52.33;102899.03;5000761;28;20033;-96
2023/04/04 09:35:40;;;;;;;6.88;3.42;;;;;;;8.61;50.76;102894.09;5001156;28;20141;-96
2023/04/04 09:38:09;;;;;;;7.18;2.95;;;;;;;8.66;46.62;102887.47;5017378;28;20048;-96
2023/04/04 09:40:35;;;;;;;5.63;2.90;;;;;;;8.60;49.00;102894.88;5004763;28;20026;-96
2023/04/04 09:43:02;;;;;;;5.72;3.00;;;;;;;8.58;47.51;102891.31;4981195;23;20317;-62
2023/04/04 09:45:30;;;;;;;7.15;2.90;;;;;;;8.43;48.48;102894.66;4985676;28;20042;-63
2023/04/04 09:47:56;;;;;;;6.22;2.72;;;;;;;8.24;44.89;102891.63;4987369;28;20068;-62
2023/04/04 09:50:23;;;;;;;7.07;3.25;;;;;;;8.38;51.73;102895.16;4986008;28;20034;-62
2023/04/04 09:52:50;;;;;;;5.97;2.85;;;;;;;8.64;47.55;102889.97;4983845;28;20029;-62
2023/04/04 09:55:16;;;;;;;6.10;2.90;;;;;;;8.76;46.85;102884.69;4982913;28;20478;-63
2023/04/04 09:57:41;;;;;;;5.07;2.80;;;;;;;8.68;46.16;102884.19;4966618;28;20030;-62
2023/04/04 10:00:08;;;;;;;6.00;3.15;;;;;;;8.53;44.75;102884.09;4986224;28;20030;-62
2023/04/04 10:02:36;;;;;;;6.38;3.00;;;;;;;8.64;48.14;102883.91;4984623;28;20046;-62
2023/04/04 10:05:09;;;;;;;6.43;2.77;;;;;;;8.84;48.28;102880.88;4984658;28;20088;-62
2023/04/04 10:07:37;;;;;;;5.30;2.75;;;;;;;8.93;46.03;102877.06;4983945;28;20327;-62
2023/04/04 10:10:06;;;;;;;6.20;2.70;;;;;;;8.94;45.89;102868.47;4981482;28;20225;-63
2023/04/04 10:12:32;;;;;;;5.47;3.05;;;;;;;9.08;45.28;102871.91;4985052;28;20580;-63
2023/04/04 10:15:01;;;;;;;6.50;2.90;;;;;;;9.12;47.43;102871.31;4985755;28;20109;-63
2023/04/04 10:17:31;;;;;;;5.63;2.60;;;;;;;9.28;48.67;102873.16;4984716;28;20026;-63
2023/04/04 10:20:03;;;;;;;6.85;3.08;;;;;;;9.45;48.06;102867.28;4985463;28;20030;-62
2023/04/04 10:22:31;;;;;;;6.40;3.05;;;;;;;9.58;48.92;102866.31;4984153;28;20050;-63
2023/04/04 10:24:57;;;;;;;5.32;2.92;;;;;;;9.62;46.37;102870.00;4983135;28;20084;-62
2023/04/04 10:27:23;;;;;;;6.25;2.88;;;;;;;9.52;44.90;102872.03;4984548;28;20030;-62
2023/04/04 10:29:48;;;;;;;7.65;3.38;;;;;;;9.44;45.38;102868.06;4983826;28;20505;-62
2023/04/04 10:32:19;;;;;;;6.75;3.13;;;;;;;9.42;45.38;102867.09;4981921;28;20537;-63
2023/04/04 10:35:04;;;;;;;6.95;3.45;;;;;;;9.52;49.05;102873.75;4985742;28;20394;-62
2023/04/04 10:37:39;;;;;;;6.05;3.03;;;;;;;9.68;44.25;102872.97;4981093;28;20031;-63
2023/04/04 10:40:26;;;;;;;6.53;3.67;;;;;;;9.71;44.52;102868.84;4974708;28;20049;-62
2023/04/04 10:42:52;;;;;;;8.07;3.30;;;;;;;9.92;48.38;102863.09;4991109;28;20120;-63
2023/04/04 10:45:18;;;;;;;5.72;3.22;;;;;;;10.20;45.86;102849.09;4994941;28;20482;-62
2023/04/04 10:47:44;;;;;;;8.10;3.60;;;;;;;10.41;46.73;102852.97;4992934;28;20112;-71
2023/04/04 10:50:11;;;;;;;6.50;3.05;;;;;;;10.50;44.16;102839.56;4994738;28;20073;-70
2023/04/04 10:52:39;;;;;;;7.20;3.20;;;;;;;10.48;41.60;102838.56;4994717;28;20034;-71
2023/04/04 10:55:07;;;;;;;7.72;3.35;;;;;;;10.32;44.19;102844.56;4993110;28;20030;-71
2023/04/04 10:57:36;;;;;;;6.57;2.90;;;;;;;10.19;39.86;102840.38;4993281;28;20045;-70
2023/04/04 11:00:13;;;;;;;7.28;3.00;;;;;;;10.10;44.52;102839.84;4987579;28;20032;-70
2023/04/04 11:02:58;;;;;;;7.40;3.80;;;;;;;10.39;49.98;102845.88;4969714;28;20033;-70
2023/04/04 11:08:04;;;;;;;7.95;3.65;;;;;;;10.40;41.47;102826.81;4987094;28;20050;-62
2023/04/04 11:10:34;;;;;;;7.05;3.60;;;;;;;10.27;41.54;102833.00;4987492;28;20472;-62
2023/04/04 11:13:07;;;;;;;6.15;3.53;;;;;;;10.44;45.19;102820.94;4986908;28;20034;-62
2023/04/04 11:15:46;;;;;;;6.70;3.60;;;;;;;10.59;44.94;102819.19;4989781;28;20061;-62
2023/04/04 11:18:12;;;;;;;6.55;3.13;;;;;;;10.58;43.81;102822.63;4988188;28;20049;-62
2023/04/04 11:20:44;;;;;;;6.45;3.60;;;;;;;10.45;42.24;102814.94;4987730;28;20034;-62
2023/04/04 11:23:21;;;;;;;6.75;3.35;;;;;;;10.52;45.63;102814.47;4985402;28;20032;-62
2023/04/04 11:25:51;;;;;;;6.65;3.60;;;;;;;10.64;43.06;102805.53;4986493;28;20073;-62
2023/04/04 11:28:26;;;;;;;7.13;3.63;;;;;;;10.78;44.06;102815.00;4986870;28;20030;-63
2023/04/04 11:31:19;;;;;;;6.65;3.70;;;;;;;11.05;45.67;102806.84;5073445;23;20108;-61
2023/04/04 11:36:43;;;;;;;6.47;3.70;;;;;;;11.29;41.69;102804.66;5037631;23;20050;-62
2023/04/04 11:39:29;;;;;;;6.53;3.67;;;;;;;11.34;44.04;102792.75;4967822;28;20031;-62
2023/04/04 11:42:06;;;;;;;8.38;3.75;;;;;;;11.41;41.65;102805.31;4966097;28;20054;-62
2023/04/04 11:44:38;;;;;;;6.95;4.07;;;;;;;11.44;41.86;102804.53;4970341;28;20038;-62
2023/04/04 11:47:08;;;;;;;6.80;3.60;;;;;;;11.45;43.38;102793.28;4968865;28;20053;-62